Time;durP1;ratioP1;P1;durP2;ratioP2;P2;SDS_P1;SDS_P2;PMS_P1;PMS_P2;Temp;Humidity;BMP_temperature;BMP_pressure;BME280_temperature;BME280_humidity;BME280_pressure;Samples;Min_cycle;Max_cycle;Signal;HPM_P1;HPM_P2
2022/11/21 00:01:55;;;;;;;51.27;21.40;;;;;;;12.99;48.66;100646.25;5083023;28;20068;-68
2022/11/21 00:04:20;;;;;;;47.80;20.73;;;;;;;12.36;50.66;100658.09;5047985;28;20021;-68
2022/11/21 00:06:45;;;;;;;51.27;22.37;;;;;;;12.13;51.31;100658.56;5047555;28;20037;-68
2022/11/21 00:09:10;;;;;;;50.57;22.37;;;;;;;13.07;49.01;100665.31;5047826;28;20466;-68
2022/11/21 00:11:36;;;;;;;43.73;22.37;;;;;;;12.41;49.86;100663.28;5050047;28;20073;-68
2022/11/21 00:14:01;;;;;;;43.50;22.37;;;;;;;12.73;48.83;100670.44;5081092;28;20123;-68
2022/11/21 00:16:27;;;;;;;45.50;21.43;;;;;;;12.97;49.62;100676.94;5047380;28;20033;-68
2022/11/21 00:18:52;;;;;;;50.20;23.30;;;;;;;12.72;49.31;100669.59;5048577;28;20091;-68
2022/11/21 00:21:19;;;;;;;41.77;20.57;;;;;;;12.64;49.65;100663.66;5052008;28;20120;-73
2022/11/21 00:23:46;;;;;;;54.97;22.23;;;;;;;13.33;47.94;100650.72;5054931;28;20032;-68
2022/11/21 00:26:13;;;;;;;60.30;25.07;;;;;;;13.75;47.29;100639.19;5050818;28;20128;-68
2022/11/21 00:28:38;;;;;;;52.23;22.23;;;;;;;13.90;46.61;100635.28;5050307;28;20112;-68
2022/11/21 00:31:04;;;;;;;39.13;21.43;;;;;;;12.12;49.57;100646.38;5052806;28;20120;-69
2022/11/21 00:33:30;;;;;;;39.30;21.47;;;;;;;12.32;50.68;100638.09;5052009;28;20032;-68
2022/11/21 00:35:56;;;;;;;39.47;21.27;;;;;;;13.30;47.86;100637.66;5054391;28;20021;-68
2022/11/21 00:38:23;;;;;;;38.67;19.77;;;;;;;13.22;48.83;100652.75;5050991;28;20354;-68
2022/11/21 00:40:49;;;;;;;39.73;21.50;;;;;;;13.85;46.91;100658.22;5051577;28;20033;-68
2022/11/21 00:43:14;;;;;;;42.20;21.20;;;;;;;13.18;49.08;100651.94;5054384;28;20032;-68
2022/11/21 00:45:40;;;;;;;44.20;21.30;;;;;;;13.00;48.63;100661.09;5051773;28;20151;-68
2022/11/21 00:48:05;;;;;;;47.03;23.20;;;;;;;12.89;48.89;100656.09;5052146;28;20064;-68
2022/11/21 00:50:31;;;;;;;44.63;22.40;;;;;;;13.35;49.03;100638.47;5052185;28;20120;-68
2022/11/21 00:52:57;;;;;;;46.50;23.90;;;;;;;13.05;49.21;100640.00;5053357;28;20171;-68
2022/11/21 00:55:23;;;;;;;40.13;21.00;;;;;;;13.36;48.61;100641.94;5050831;28;20401;-68
2022/11/21 00:57:49;;;;;;;45.07;22.80;;;;;;;13.22;48.35;100652.75;5052127;28;20033;-68
2022/11/21 01:00:15;;;;;;;40.40;21.50;;;;;;;14.04;47.47;100653.31;5050062;28;20060;-68
2022/11/21 01:02:40;;;;;;;51.07;26.10;;;;;;;13.34;48.13;100652.44;5053563;28;20425;-68
2022/11/21 01:05:06;;;;;;;48.83;26.10;;;;;;;13.46;47.96;100650.44;5052516;28;20029;-68
2022/11/21 01:07:31;;;;;;;50.53;26.73;;;;;;;12.57;48.84;100656.81;5083903;28;20459;-68
2022/11/21 01:09:58;;;;;;;51.30;26.50;;;;;;;13.37;48.85;100667.31;5052928;28;20072;-68
2022/11/21 01:12:23;;;;;;;56.80;26.67;;;;;;;13.52;48.22;100655.56;5052240;28;20118;-68
2022/11/21 01:14:49;;;;;;;58.50;27.73;;;;;;;12.85;49.09;100648.34;5051199;28;20110;-68
2022/11/21 01:17:15;;;;;;;63.37;29.20;;;;;;;13.60;47.92;100637.84;5053619;28;20036;-68
2022/11/21 01:19:40;;;;;;;54.00;28.70;;;;;;;13.25;48.50;100639.53;5050158;28;20555;-68
2022/11/21 01:22:05;;;;;;;55.73;27.40;;;;;;;13.21;48.36;100638.75;5050831;28;20020;-68
2022/11/21 01:24:31;;;;;;;50.67;26.77;;;;;;;12.64;49.75;100636.53;5051953;28;20115;-68
2022/11/21 01:26:56;;;;;;;58.00;27.87;;;;;;;13.49;47.40;100635.50;5052044;28;20032;-68
2022/11/21 01:29:22;;;;;;;61.93;28.27;;;;;;;12.97;48.50;100649.81;5084907;28;20033;-68
2022/11/21 01:31:47;;;;;;;64.83;28.87;;;;;;;12.80;48.92;100642.34;5048990;28;20033;-68
2022/11/21 01:34:13;;;;;;;69.33;30.50;;;;;;;12.50;49.10;100632.50;5049737;28;20035;-68
2022/11/21 01:36:39;;;;;;;64.97;29.93;;;;;;;13.28;48.54;100643.84;5048375;28;20534;-68
2022/11/21 01:39:06;;;;;;;62.70;29.70;;;;;;;13.00;49.37;100653.25;5053395;28;20040;-68
2022/11/21 01:41:37;;;;;;;54.87;27.17;;;;;;;13.67;47.68;100643.78;5052050;28;20135;-68
2022/11/21 01:44:22;;;;;;;64.83;28.30;;;;;;;13.50;47.53;100641.59;5048795;28;20497;-67
2022/11/21 01:46:49;;;;;;;60.70;26.63;;;;;;;12.80;49.66;100634.47;5049958;28;20034;-68
2022/11/21 01:49:18;;;;;;;72.77;29.70;;;;;;;13.28;48.18;100652.59;5052976;28;20036;-68
2022/11/21 01:51:47;;;;;;;64.50;27.93;;;;;;;13.45;47.53;100635.59;5049201;28;20078;-68
2022/11/21 01:54:25;;;;;;;88.47;31.77;;;;;;;13.27;47.70;100624.63;5048631;28;20040;-68
2022/11/21 01:57:18;;;;;;;49.73;24.40;;;;;;;13.63;47.90;100632.50;5052205;28;20035;-68
2022/11/21 02:00:04;;;;;;;57.35;25.13;;;;;;;12.38;49.30;100638.84;5052360;28;20037;-67
2022/11/21 02:02:35;;;;;;;56.97;24.27;;;;;;;12.25;50.18;100636.50;5049964;28;20036;-68
2022/11/21 02:05:04;;;;;;;53.07;24.40;;;;;;;12.72;49.19;100646.00;5082566;28;20063;-68
2022/11/21 02:07:34;;;;;;;69.30;27.43;;;;;;;13.17;47.18;100644.09;5051352;28;20056;-68
2022/11/21 02:10:02;;;;;;;79.00;27.93;;;;;;;13.35;46.72;100633.22;5052832;28;20056;-68
2022/11/21 02:12:42;;;;;;;77.63;26.80;;;;;;;12.73;48.48;100639.88;5049141;28;20478;-68
2022/11/21 02:15:08;;;;;;;142.17;31.30;;;;;;;12.63;48.88;100630.44;5051300;28;20061;-68
2022/11/21 02:17:33;;;;;;;108.17;36.60;;;;;;;13.17;47.51;100633.63;5083016;28;20059;-68
2022/11/21 02:20:05;;;;;;;191.53;32.13;;;;;;;13.06;47.97;100637.38;5051437;28;20025;-68
2022/11/21 02:22:30;;;;;;;264.07;33.17;;;;;;;13.42;46.42;100635.66;5050970;28;20095;-68
2022/11/21 02:25:07;;;;;;;80.37;26.87;;;;;;;13.31;47.47;100631.53;5050117;28;20493;-68
2022/11/21 02:27:33;;;;;;;201.80;33.03;;;;;;;13.29;47.52;100638.56;5050909;28;20459;-68
2022/11/21 02:30:00;;;;;;;152.53;29.33;;;;;;;13.07;47.24;100633.81;5051148;28;20060;-68
2022/11/21 02:32:37;;;;;;;185.57;29.97;;;;;;;12.77;47.95;100639.78;5049117;28;20091;-68
2022/11/21 02:35:04;;;;;;;165.17;37.30;;;;;;;12.82;48.05;100643.19;5048143;28;20016;-68
2022/11/21 02:37:30;;;;;;;173.77;36.97;;;;;;;13.36;47.42;100645.41;5050661;28;20025;-68
2022/11/21 02:40:00;;;;;;;173.13;33.37;;;;;;;13.59;46.53;100641.38;5082604;28;20115;-68
2022/11/21 02:42:32;;;;;;;182.53;34.13;;;;;;;12.53;49.88;100642.91;5048854;28;20031;-68
2022/11/21 02:45:00;;;;;;;114.03;29.60;;;;;;;13.22;47.47;100647.50;5048460;28;20032;-68
2022/11/21 02:47:27;;;;;;;169.73;25.87;;;;;;;13.47;47.42;100644.31;5049140;28;20037;-69
2022/11/21 02:50:03;;;;;;;145.70;26.47;;;;;;;13.48;46.74;100649.50;5051860;28;20028;-68
2022/11/21 02:52:28;;;;;;;67.83;25.27;;;;;;;13.56;47.19;100646.69;5049801;28;20723;-68
2022/11/21 02:54:54;;;;;;;73.53;27.03;;;;;;;13.67;46.00;100644.66;5048810;28;20025;-68
2022/11/21 02:57:19;;;;;;;127.87;30.33;;;;;;;13.54;46.84;100633.59;5049966;28;20098;-68
2022/11/21 02:59:44;;;;;;;160.27;29.03;;;;;;;13.04;47.53;100623.41;5080324;28;20087;-68
2022/11/21 03:02:10;;;;;;;137.77;31.23;;;;;;;13.27;46.96;100626.38;5049292;28;20052;-68
2022/11/21 03:04:35;;;;;;;124.20;30.50;;;;;;;12.46;49.45;100601.09;5050138;28;20033;-68
2022/11/21 03:07:00;;;;;;;94.07;27.33;;;;;;;12.88;48.28;100595.81;5048564;28;20029;-68
2022/11/21 03:09:26;;;;;;;119.50;28.80;;;;;;;12.50;49.12;100600.16;5048414;28;20112;-68
2022/11/21 03:11:51;;;;;;;110.50;25.63;;;;;;;12.07;51.06;100611.53;5050756;28;20044;-68
2022/11/21 03:14:16;;;;;;;136.80;25.93;;;;;;;11.76;50.48;100617.31;5047764;28;20044;-68
2022/11/21 03:16:42;;;;;;;77.47;26.80;;;;;;;12.72;49.50;100618.88;5050171;28;20025;-68
2022/11/21 03:19:07;;;;;;;102.83;27.27;;;;;;;13.29;48.08;100617.56;5050964;28;20037;-68
2022/11/21 03:21:32;;;;;;;121.60;31.03;;;;;;;13.67;46.59;100618.41;5050601;28;20522;-68
2022/11/21 03:23:58;;;;;;;95.33;28.73;;;;;;;13.01;48.31;100625.22;5082452;28;20028;-68
2022/11/21 03:26:23;;;;;;;88.57;27.13;;;;;;;13.29;47.17;100621.97;5083422;28;20032;-68
2022/11/21 03:28:48;;;;;;;90.20;27.57;;;;;;;12.25;49.74;100616.38;5046968;28;20052;-68
2022/11/21 03:31:14;;;;;;;81.43;24.83;;;;;;;13.23;47.69;100612.47;5049165;28;20068;-68
2022/11/21 03:33:39;;;;;;;55.43;24.17;;;;;;;13.23;47.17;100607.22;5048724;28;20083;-68
2022/11/21 03:36:04;;;;;;;79.73;25.23;;;;;;;13.30;47.33;100600.94;5050337;28;20076;-68
2022/11/21 03:38:30;;;;;;;93.63;26.43;;;;;;;13.79;46.49;100605.81;5049926;28;20024;-68
2022/11/21 03:40:55;;;;;;;83.43;27.27;;;;;;;13.82;45.88;100621.50;5049163;28;20035;-68
2022/11/21 03:43:20;;;;;;;93.77;26.83;;;;;;;13.58;46.33;100611.59;5046628;28;20426;-68
2022/11/21 03:45:46;;;;;;;126.27;28.07;;;;;;;13.79;46.29;100611.09;5050460;28;20048;-68
2022/11/21 03:48:13;;;;;;;132.57;28.77;;;;;;;14.06;46.00;100607.69;5082352;28;20037;-68
2022/11/21 03:50:41;;;;;;;142.37;29.03;;;;;;;12.23;48.97;100618.19;5047973;28;20083;-68
2022/11/21 03:53:07;;;;;;;123.27;24.87;;;;;;;12.60;48.69;100612.16;5048916;28;20044;-68
2022/11/21 03:55:32;;;;;;;130.77;25.47;;;;;;;12.60;49.38;100600.81;5050671;28;20078;-68
2022/11/21 03:57:57;;;;;;;139.23;26.47;;;;;;;13.16;47.44;100596.03;5080557;28;20045;-68
2022/11/21 04:00:23;;;;;;;136.37;28.00;;;;;;;12.61;48.59;100602.53;5047158;28;20120;-68
2022/11/21 04:02:48;;;;;;;135.30;24.70;;;;;;;12.97;48.35;100595.59;5081594;28;20474;-68
2022/11/21 04:05:13;;;;;;;110.17;25.90;;;;;;;13.03;48.15;100590.19;5047975;28;20366;-68
2022/11/21 04:07:39;;;;;;;97.83;24.60;;;;;;;13.12;48.08;100593.50;5048695;28;20034;-68
2022/11/21 04:10:04;;;;;;;114.13;25.47;;;;;;;12.50;49.36;100589.66;5048187;28;20036;-68
2022/11/21 04:12:30;;;;;;;146.20;23.23;;;;;;;12.99;48.43;100585.91;5046929;28;20120;-68
2022/11/21 04:14:55;;;;;;;133.10;25.17;;;;;;;12.55;49.37;100598.28;5048843;28;20060;-68
2022/11/21 04:17:20;;;;;;;145.77;27.73;;;;;;;12.16;50.13;100598.25;5082431;28;20048;-68
2022/11/21 04:19:45;;;;;;;137.63;24.33;;;;;;;12.86;48.68;100597.63;5049101;28;20112;-68
2022/11/21 04:22:11;;;;;;;155.53;25.73;;;;;;;10.97;52.90;100595.09;5047493;28;20049;-68
2022/11/21 04:24:36;;;;;;;146.50;25.03;;;;;;;11.44;52.80;100584.72;5079505;28;20127;-68
2022/11/21 04:27:01;;;;;;;154.37;25.97;;;;;;;12.20;50.48;100584.19;5049046;28;20103;-68
2022/11/21 04:29:27;;;;;;;137.80;23.67;;;;;;;11.27;52.11;100588.50;5048178;28;20056;-68
2022/11/21 04:31:52;;;;;;;174.87;24.10;;;;;;;11.59;51.49;100579.19;5048279;28;20017;-68
2022/11/21 04:34:17;;;;;;;215.13;29.63;;;;;;;11.22;53.99;100584.22;5049131;28;20036;-68
2022/11/21 04:36:43;;;;;;;172.13;23.77;;;;;;;11.18;53.40;100580.78;5048820;28;20577;-68
2022/11/21 04:39:08;;;;;;;97.43;22.17;;;;;;;11.77;52.37;100574.53;5045725;28;20037;-68
2022/11/21 04:41:34;;;;;;;167.00;25.67;;;;;;;11.45;51.57;100575.97;5047415;28;20033;-68
2022/11/21 04:43:59;;;;;;;130.70;23.23;;;;;;;11.28;51.40;100573.63;5050421;28;20056;-68
2022/11/21 04:46:24;;;;;;;125.23;23.37;;;;;;;11.84;51.26;100569.16;5047416;28;20508;-68
2022/11/21 04:48:49;;;;;;;173.17;24.23;;;;;;;11.85;50.80;100559.53;5050290;28;20486;-68
2022/11/21 04:51:15;;;;;;;174.03;27.27;;;;;;;11.58;50.79;100560.91;5049044;28;20108;-68
2022/11/21 04:53:40;;;;;;;113.63;21.57;;;;;;;11.23;52.27;100550.19;5046322;28;20179;-68
2022/11/21 04:56:05;;;;;;;154.87;23.57;;;;;;;11.49;50.89;100541.00;5081878;28;20032;-68
2022/11/21 04:58:31;;;;;;;122.67;24.00;;;;;;;11.29;52.26;100549.22;5050147;28;20025;-68
2022/11/21 05:00:56;;;;;;;91.53;22.30;;;;;;;11.34;51.06;100548.25;5047122;28;20490;-68
2022/11/21 05:03:22;;;;;;;90.63;22.23;;;;;;;11.08;52.58;100545.22;5047980;28;20572;-68
2022/11/21 05:05:47;;;;;;;87.63;19.90;;;;;;;11.00;52.86;100540.09;5048319;28;20045;-68
2022/11/21 05:08:12;;;;;;;121.47;23.60;;;;;;;11.98;50.07;100540.09;5083937;28;20021;-68
2022/11/21 05:13:22;;;;;;;60.73;22.17;;;;;;;11.78;50.64;100542.22;5040536;28;20068;-68
2022/11/21 05:15:51;;;;;;;94.83;21.87;;;;;;;11.96;49.69;100526.16;5052764;28;20021;-68
2022/11/21 05:18:18;;;;;;;110.70;21.80;;;;;;;12.43;48.94;100525.16;5053668;28;20036;-68
2022/11/21 05:20:43;;;;;;;110.60;22.90;;;;;;;12.24;48.79;100530.81;5050445;28;20994;-68
2022/11/21 05:23:09;;;;;;;86.30;21.83;;;;;;;12.25;48.48;100521.19;5052511;28;20031;-68
2022/11/21 05:25:34;;;;;;;71.03;21.47;;;;;;;12.08;48.55;100524.19;5051397;28;20486;-68
2022/11/21 05:27:59;;;;;;;151.27;23.50;;;;;;;12.50;47.82;100511.00;5051295;28;20528;-68
2022/11/21 05:30:25;;;;;;;78.37;21.10;;;;;;;12.38;48.46;100512.19;5053441;28;20079;-68
2022/11/21 05:32:50;;;;;;;134.07;24.93;;;;;;;12.28;48.75;100506.28;5051386;28;20025;-68
2022/11/21 05:35:16;;;;;;;113.10;23.77;;;;;;;12.86;47.51;100500.56;5081629;28;20389;-68
2022/11/21 05:37:41;;;;;;;109.93;22.53;;;;;;;11.77;50.51;100499.44;5053427;28;20024;-68
2022/11/21 05:40:07;;;;;;;70.73;21.43;;;;;;;11.53;50.40;100495.56;5053220;28;20059;-68
2022/11/21 05:45:16;;;;;;;59.77;19.63;;;;;;;11.36;50.88;100499.38;5036126;28;20048;-68
2022/11/21 05:47:41;;;;;;;64.17;20.23;;;;;;;12.29;48.56;100505.38;5051949;28;20025;-68
2022/11/21 05:50:07;;;;;;;86.10;22.10;;;;;;;11.00;52.44;100501.75;5051004;28;20036;-68
2022/11/21 05:52:33;;;;;;;59.40;20.37;;;;;;;12.00;49.40;100483.28;5050898;28;20021;-68
2022/11/21 05:54:58;;;;;;;62.90;20.87;;;;;;;11.27;52.06;100489.06;5050426;28;20028;-68
2022/11/21 05:57:23;;;;;;;99.80;21.83;;;;;;;11.89;49.88;100487.84;5051029;28;20053;-68
2022/11/21 05:59:48;;;;;;;78.00;22.00;;;;;;;12.18;49.30;100489.88;5051372;28;20037;-69
2022/11/21 06:04:58;;;;;;;57.90;20.67;;;;;;;11.91;50.11;100482.59;5051778;28;20128;-68
2022/11/21 06:07:23;;;;;;;72.13;19.97;;;;;;;12.19;48.84;100475.03;5050299;28;20116;-68
2022/11/21 06:09:48;;;;;;;113.77;20.93;;;;;;;11.81;49.37;100469.69;5084169;28;20545;-68
2022/11/21 06:12:14;;;;;;;56.40;19.70;;;;;;;11.63;49.96;100463.06;5050671;28;20063;-68
2022/11/21 06:14:39;;;;;;;63.23;19.67;;;;;;;12.01;49.02;100461.44;5051389;28;20037;-68
2022/11/21 06:17:04;;;;;;;49.13;18.43;;;;;;;12.65;47.87;100476.59;5048878;28;20039;-68
2022/11/21 06:19:29;;;;;;;55.63;20.37;;;;;;;12.18;48.04;100473.31;5050248;28;20033;-68
2022/11/21 06:21:55;;;;;;;47.83;19.83;;;;;;;12.29;48.85;100466.06;5083996;28;20021;-68
2022/11/21 06:24:20;;;;;;;64.47;20.00;;;;;;;12.63;47.53;100469.66;5051831;28;20029;-68
2022/11/21 06:26:45;;;;;;;40.97;20.17;;;;;;;12.88;47.16;100467.28;5050954;28;20021;-68
2022/11/21 06:29:11;;;;;;;82.80;24.27;;;;;;;12.20;48.11;100461.03;5050016;28;20464;-69
2022/11/21 06:31:36;;;;;;;46.10;20.67;;;;;;;12.54;48.23;100461.13;5047478;28;20496;-68
2022/11/21 06:34:02;;;;;;;54.90;20.80;;;;;;;11.76;48.90;100460.19;5050293;28;20112;-68
2022/11/21 06:36:27;;;;;;;77.23;19.93;;;;;;;11.18;50.65;100453.47;5084324;28;20028;-68
2022/11/21 06:38:54;;;;;;;59.73;20.50;;;;;;;11.48;49.96;100450.28;5048590;28;20082;-68
2022/11/21 06:41:24;;;;;;;69.50;22.70;;;;;;;12.05;48.76;100447.38;5052260;28;20024;-68
2022/11/21 06:43:49;;;;;;;61.47;19.50;;;;;;;12.22;48.06;100454.00;5051688;28;20032;-68
2022/11/21 06:46:15;;;;;;;44.73;19.30;;;;;;;12.85;46.88;100449.00;5049759;28;20032;-68
2022/11/21 06:48:41;;;;;;;39.00;19.30;;;;;;;12.60;48.02;100439.13;5046839;28;20063;-68
2022/11/21 06:51:11;;;;;;;45.67;23.77;;;;;;;13.01;47.02;100450.31;5048979;28;20033;-68
2022/11/21 06:53:37;;;;;;;38.13;19.53;;;;;;;13.30;46.16;100440.81;5050136;28;20538;-68
2022/11/21 06:56:03;;;;;;;53.73;19.73;;;;;;;13.23;46.74;100449.75;5049874;28;20017;-68
2022/11/21 06:58:28;;;;;;;40.27;19.73;;;;;;;12.77;46.98;100440.47;5048769;28;20090;-68
2022/11/21 07:00:54;;;;;;;57.80;20.70;;;;;;;12.36;48.39;100430.97;5048841;28;20387;-68
2022/11/21 07:03:21;;;;;;;53.10;18.47;;;;;;;13.20;46.88;100429.72;5049286;28;20469;-68
2022/11/21 07:05:47;;;;;;;47.00;19.73;;;;;;;13.00;48.15;100427.59;5049460;28;20033;-69
2022/11/21 07:08:12;;;;;;;50.40;20.17;;;;;;;12.81;48.21;100415.88;5049610;28;20111;-68
2022/11/21 07:10:38;;;;;;;42.20;19.80;;;;;;;13.26;46.88;100412.94;5051879;28;20021;-68
2022/11/21 07:13:21;;;;;;;35.60;19.07;;;;;;;12.71;48.07;100410.88;5083009;28;20021;-68
2022/11/21 07:15:52;;;;;;;48.90;18.50;;;;;;;12.43;48.48;100405.44;5050556;28;20024;-68
2022/11/21 07:18:19;;;;;;;44.90;17.47;;;;;;;11.51;51.21;100418.81;5046448;28;20059;-68
2022/11/21 07:20:45;;;;;;;39.23;19.03;;;;;;;12.56;48.46;100416.50;5048902;28;20064;-68
2022/11/21 07:23:11;;;;;;;43.00;18.10;;;;;;;10.85;52.23;100416.59;5046465;28;20029;-68
2022/11/21 07:25:38;;;;;;;36.80;17.13;;;;;;;12.53;48.89;100421.84;5050473;28;20373;-68
2022/11/21 07:28:04;;;;;;;32.73;17.60;;;;;;;13.01;47.83;100412.72;5046467;28;20502;-68
2022/11/21 07:30:29;;;;;;;36.37;18.50;;;;;;;13.18;47.33;100409.66;5049877;28;20029;-68
2022/11/21 07:32:59;;;;;;;35.20;18.00;;;;;;;12.99;47.76;100418.00;5050046;28;20056;-68
2022/11/21 07:35:25;;;;;;;37.27;18.40;;;;;;;13.09;48.05;100415.16;5048536;28;20017;-68
2022/11/21 07:37:51;;;;;;;34.67;17.30;;;;;;;13.09;47.51;100415.16;5050154;28;20087;-68
2022/11/21 07:40:17;;;;;;;33.87;18.20;;;;;;;12.59;48.90;100416.41;5080467;28;20032;-68
2022/11/21 07:42:43;;;;;;;32.70;17.53;;;;;;;13.01;48.53;100410.97;5050433;28;20060;-68
2022/11/21 07:45:08;;;;;;;35.10;17.87;;;;;;;13.50;46.92;100415.78;5050751;28;20071;-68
2022/11/21 07:47:34;;;;;;;31.57;17.73;;;;;;;13.40;46.67;100404.69;5047713;28;20098;-68
2022/11/21 07:49:59;;;;;;;37.20;17.03;;;;;;;13.49;46.38;100408.81;5046510;28;20029;-68
2022/11/21 07:52:25;;;;;;;31.27;16.83;;;;;;;12.69;47.45;100396.94;5045120;28;20037;-68
2022/11/21 07:54:50;;;;;;;31.63;16.90;;;;;;;12.81;47.41;100397.53;5047155;28;20111;-68
2022/11/21 07:57:16;;;;;;;34.53;17.37;;;;;;;13.00;47.41;100388.25;5045318;28;20116;-68
2022/11/21 07:59:41;;;;;;;39.67;17.53;;;;;;;12.95;47.64;100392.75;5048756;28;20489;-68
2022/11/21 08:02:13;;;;;;;57.90;18.33;;;;;;;12.77;48.11;100390.63;5052032;28;20060;-68
2022/11/21 08:04:38;;;;;;;43.75;17.45;;;;;;;11.06;51.96;100385.69;5039693;28;20036;-68
2022/11/21 08:07:04;;;;;;;64.00;19.17;;;;;;;12.03;49.99;100388.94;5044883;28;20037;-68
2022/11/21 08:09:29;;;;;;;54.90;19.03;;;;;;;12.94;48.36;100374.44;5049854;28;20036;-67
2022/11/21 08:11:54;;;;;;;56.60;17.80;;;;;;;13.24;46.93;100378.84;5050882;28;20036;-68
2022/11/21 08:14:20;;;;;;;127.33;20.00;;;;;;;12.69;48.07;100370.72;5045032;28;20036;-68
2022/11/21 08:16:45;;;;;;;50.37;17.50;;;;;;;12.73;48.87;100369.75;5032115;28;21606;-68
2022/11/21 08:19:11;;;;;;;64.13;19.00;;;;;;;12.28;49.54;100370.00;5038477;28;20044;-68
2022/11/21 08:21:36;;;;;;;44.13;16.83;;;;;;;12.83;48.97;100361.59;5052719;28;20078;-68
2022/11/21 08:24:01;;;;;;;36.70;17.43;;;;;;;12.51;49.27;100365.94;5081476;28;20025;-68
2022/11/21 08:26:27;;;;;;;37.23;17.47;;;;;;;13.03;48.15;100359.31;5062513;28;20037;-68
2022/11/21 08:28:52;;;;;;;39.33;17.67;;;;;;;12.52;49.57;100357.19;5046547;28;20089;-68
2022/11/21 08:31:18;;;;;;;38.17;17.27;;;;;;;13.21;48.30;100357.06;5081280;28;20040;-68
2022/11/21 08:33:43;;;;;;;31.90;17.03;;;;;;;13.40;46.64;100353.03;5053679;28;20025;-68
2022/11/21 08:36:09;;;;;;;32.57;15.90;;;;;;;13.69;46.47;100343.44;5051034;28;20072;-68
2022/11/21 08:38:34;;;;;;;30.87;16.13;;;;;;;13.71;46.00;100336.38;5052224;28;20025;-68
2022/11/21 08:43:43;;;;;;;33.60;15.70;;;;;;;13.20;47.91;100345.72;5053887;28;20410;-68
2022/11/21 08:46:09;;;;;;;31.23;16.30;;;;;;;13.57;47.04;100338.53;5051599;28;20029;-68
2022/11/21 08:48:34;;;;;;;30.77;16.57;;;;;;;13.70;47.21;100339.91;5051109;28;20060;-68
2022/11/21 08:50:59;;;;;;;35.87;17.37;;;;;;;13.83;46.62;100334.25;5082600;28;20042;-68
2022/11/21 08:53:25;;;;;;;29.87;16.10;;;;;;;13.46;47.99;100330.16;5051836;28;20032;-67
2022/11/21 08:55:52;;;;;;;47.63;18.50;;;;;;;13.27;49.11;100329.78;5050449;28;20119;-68
2022/11/21 08:58:17;;;;;;;40.17;17.17;;;;;;;13.71;48.07;100323.25;5053519;28;20075;-68
2022/11/21 09:00:43;;;;;;;28.20;16.07;;;;;;;13.86;48.06;100323.66;5070580;28;20048;-68
2022/11/21 09:03:08;;;;;;;34.63;17.40;;;;;;;13.86;48.27;100323.66;5066093;28;20032;-68
2022/11/21 09:05:33;;;;;;;33.77;17.47;;;;;;;13.81;49.26;100320.34;5051355;28;20028;-68
2022/11/21 09:07:59;;;;;;;30.80;17.13;;;;;;;14.04;48.69;100312.56;5081960;28;20086;-68
2022/11/21 09:10:28;;;;;;;41.77;19.73;;;;;;;13.71;50.24;100320.63;5052399;28;20028;-68
2022/11/21 09:12:58;;;;;;;32.97;17.63;;;;;;;13.27;52.31;100309.66;5051306;28;20071;-68
2022/11/21 09:18:10;;;;;;;32.60;15.67;;;;;;;14.15;51.13;100290.31;5050149;28;20055;-68
2022/11/21 09:20:41;;;;;;;33.77;14.43;;;;;;;14.56;49.62;100283.66;5084303;28;20549;-68
2022/11/21 09:23:08;;;;;;;35.70;15.23;;;;;;;14.37;51.09;100278.19;5052168;28;20068;-68
2022/11/21 09:25:34;;;;;;;26.97;13.30;;;;;;;13.82;53.06;100280.00;5063186;28;20110;-68
2022/11/21 09:28:01;;;;;;;36.53;13.93;;;;;;;13.87;53.64;100293.84;5049715;28;20443;-68
2022/11/21 09:30:26;;;;;;;29.27;13.80;;;;;;;14.02;53.48;100282.84;5052393;28;20036;-68
2022/11/21 09:32:51;;;;;;;27.00;13.90;;;;;;;14.03;53.55;100284.56;5049682;28;20024;-68
2022/11/21 09:35:17;;;;;;;27.10;12.40;;;;;;;14.89;51.19;100274.63;5049205;28;20409;-68
2022/11/21 09:37:42;;;;;;;34.50;12.43;;;;;;;14.72;51.72;100273.47;5048958;28;20493;-68
2022/11/21 09:40:13;;;;;;;30.17;13.23;;;;;;;14.58;51.72;100270.44;5051951;28;20029;-68
2022/11/21 09:43:25;;;;;;;26.80;12.13;;;;;;;14.75;51.62;100273.38;5048716;28;20036;-68
2022/11/21 09:46:16;;;;;;;27.07;12.30;;;;;;;14.54;52.98;100274.09;5025094;28;20033;-68
2022/11/21 09:48:44;;;;;;;25.47;11.90;;;;;;;15.28;52.45;100271.41;5046075;28;20029;-68
2022/11/21 09:51:14;;;;;;;26.20;11.80;;;;;;;15.03;51.57;100266.19;5047441;28;20036;-68
2022/11/21 09:53:54;;;;;;;34.53;11.53;;;;;;;15.26;51.79;100273.22;5050432;28;20087;-68
2022/11/21 09:56:24;;;;;;;27.70;11.30;;;;;;;15.24;52.23;100261.91;5049288;28;20390;-68
2022/11/21 09:59:02;;;;;;;27.40;10.97;;;;;;;15.52;51.30;100252.94;5049646;28;20025;-68
2022/11/21 10:01:28;;;;;;;28.07;11.50;;;;;;;15.04;52.93;100257.41;5051443;28;20427;-68
2022/11/21 10:03:54;;;;;;;22.20;10.43;;;;;;;14.85;52.76;100241.44;5050808;28;20478;-67
2022/11/21 10:06:28;;;;;;;25.23;11.50;;;;;;;14.53;53.59;100251.34;5051595;28;20062;-67
2022/11/21 10:09:12;;;;;;;28.50;11.00;;;;;;;14.24;54.79;100245.31;5046882;28;20025;-68
2022/11/21 10:15:01;;;;;;;28.27;11.57;;;;;;;15.36;51.77;100237.75;5051788;28;20107;-68
2022/11/21 10:17:58;;;;;;;25.93;11.27;;;;;;;15.57;51.60;100235.19;5055365;28;20497;-68
2022/11/21 10:20:32;;;;;;;22.20;10.43;;;;;;;16.21;49.68;100230.78;5050344;28;20134;-68
2022/11/21 10:23:16;;;;;;;23.97;11.47;;;;;;;15.84;51.69;100232.34;5048524;28;20039;-68
2022/11/21 10:25:58;;;;;;;22.03;10.17;;;;;;;16.01;50.68;100232.50;5049922;28;20033;-68
2022/11/21 10:28:47;;;;;;;26.43;10.40;;;;;;;16.53;49.72;100223.28;5053774;28;20518;-68
2022/11/21 10:31:14;;;;;;;28.33;10.53;;;;;;;16.48;48.43;100212.06;5049486;28;20490;-68
2022/11/21 10:33:40;;;;;;;24.07;9.87;;;;;;;16.87;48.05;100205.91;5050923;28;20480;-68
2022/11/21 10:36:22;;;;;;;36.10;10.47;;;;;;;16.37;49.35;100213.38;5050145;28;20132;-68
2022/11/21 10:38:49;;;;;;;24.40;9.73;;;;;;;16.00;49.75;100201.78;5049647;28;20506;-68
2022/11/21 10:41:24;;;;;;;17.97;8.93;;;;;;;15.63;50.93;100208.56;5051147;28;20033;-68
2022/11/21 10:46:58;;;;;;;19.17;9.07;;;;;;;15.53;50.45;100196.72;5050301;28;20460;-67
2022/11/21 10:49:31;;;;;;;22.93;9.20;;;;;;;15.59;50.59;100197.31;5044886;28;20111;-68
2022/11/21 10:52:05;;;;;;;19.77;9.13;;;;;;;15.30;51.16;100200.25;5043367;28;20083;-68
2022/11/21 10:54:34;;;;;;;23.33;9.37;;;;;;;15.52;50.74;100194.97;5044758;28;20029;-68
2022/11/21 10:57:18;;;;;;;23.27;8.77;;;;;;;15.29;51.18;100191.53;5058616;28;20029;-68
2022/11/21 11:00:12;;;;;;;23.40;9.97;;;;;;;15.93;49.34;100179.25;5054683;28;20016;-68
2022/11/21 11:02:39;;;;;;;23.87;8.73;;;;;;;16.32;48.83;100175.84;5044591;28;20071;-68
2022/11/21 11:05:24;;;;;;;20.97;8.47;;;;;;;16.02;50.10;100181.50;5042022;28;20032;-68
2022/11/21 11:08:04;;;;;;;30.20;9.10;;;;;;;15.73;50.66;100173.03;5049727;28;20036;-68
2022/11/21 11:10:44;;;;;;;20.47;8.70;;;;;;;16.29;49.76;100165.41;5047677;28;20080;-68
2022/11/21 11:13:33;;;;;;;21.93;8.23;;;;;;;16.74;47.99;100161.59;5036782;28;20215;-68
2022/11/21 11:16:10;;;;;;;31.37;9.43;;;;;;;16.35;48.79;100164.25;5044139;28;20032;-68
2022/11/21 11:18:45;;;;;;;18.43;7.33;;;;;;;16.07;49.55;100158.47;5046470;28;20068;-68
2022/11/21 11:21:15;;;;;;;20.80;7.40;;;;;;;15.59;50.59;100143.75;5064559;28;20040;-70
2022/11/21 11:23:41;;;;;;;23.80;8.07;;;;;;;16.13;49.42;100145.91;5062937;28;20033;-68
2022/11/21 11:26:19;;;;;;;28.83;9.53;;;;;;;16.74;49.17;100144.91;5044970;28;20033;-68
2022/11/21 11:28:44;;;;;;;17.30;9.10;;;;;;;16.37;49.92;100142.19;5047357;28;20072;-68
2022/11/21 11:31:10;;;;;;;20.87;7.90;;;;;;;15.19;51.91;100134.88;5039682;28;20025;-68
2022/11/21 11:33:48;;;;;;;19.43;8.47;;;;;;;16.25;49.72;100126.91;5046641;28;20048;-68